createdAt,value
2022-11-30T00:00:35.665Z,15.90
2022-11-30T00:03:15.787Z,15.90
2022-11-30T00:06:02.656Z,15.80
2022-11-30T00:08:42.706Z,15.80
2022-11-30T00:11:31.673Z,15.80
2022-11-30T00:14:11.759Z,15.80
2022-11-30T00:16:58.771Z,15.80
2022-11-30T00:19:38.693Z,15.70
2022-11-30T00:22:25.636Z,15.80
2022-11-30T00:25:12.673Z,15.70
2022-11-30T00:27:59.699Z,15.80
2022-11-30T00:30:39.709Z,15.80
2022-11-30T00:33:20.214Z,15.70
2022-11-30T00:36:14.648Z,15.70
2022-11-30T00:38:56.107Z,15.70
2022-11-30T00:41:42.709Z,15.70
2022-11-30T00:44:29.711Z,15.70
2022-11-30T00:47:09.673Z,15.60
2022-11-30T00:49:56.665Z,15.70
2022-11-30T00:52:43.711Z,15.60
2022-11-30T00:55:32.775Z,15.60
2022-11-30T00:58:13.698Z,15.60
2022-11-30T01:01:00.689Z,15.60
2022-11-30T01:03:41.728Z,15.60
2022-11-30T01:06:28.666Z,15.60
2022-11-30T01:09:09.151Z,15.60
2022-11-30T01:11:55.654Z,15.60
2022-11-30T01:14:35.683Z,15.60
2022-11-30T01:17:22.702Z,15.60
2022-11-30T01:20:02.772Z,15.60
2022-11-30T01:22:49.670Z,15.60
2022-11-30T01:25:36.676Z,15.60
2022-11-30T01:28:23.683Z,15.60
2022-11-30T01:31:11.832Z,15.60
2022-11-30T01:34:07.699Z,15.50
2022-11-30T01:36:54.710Z,15.50
2022-11-30T01:39:41.676Z,15.50
2022-11-30T01:42:28.744Z,15.50
2022-11-30T01:45:10.712Z,15.50
2022-11-30T01:48:05.502Z,15.50
2022-11-30T01:50:45.668Z,15.50
2022-11-30T01:53:26.195Z,15.50
2022-11-30T01:56:12.719Z,15.40
2022-11-30T01:58:53.515Z,15.40
2022-11-30T02:01:39.728Z,15.40
2022-11-30T02:04:32.726Z,15.40
2022-11-30T02:07:21.796Z,15.30
2022-11-30T02:10:02.134Z,15.30
2022-11-30T02:12:58.695Z,15.30
2022-11-30T02:15:59.293Z,15.30
2022-11-30T02:19:13.676Z,15.30
2022-11-30T02:22:11.701Z,15.20
2022-11-30T02:25:10.723Z,15.20
2022-11-30T02:28:33.654Z,15.20
2022-11-30T02:31:17.875Z,15.20
2022-11-30T02:34:06.675Z,15.20
2022-11-30T02:36:47.808Z,15.20
2022-11-30T02:39:34.688Z,15.20
2022-11-30T02:42:26.667Z,15.20
2022-11-30T02:45:15.658Z,15.20
2022-11-30T02:48:09.726Z,15.20
2022-11-30T02:51:04.669Z,15.10
2022-11-30T02:53:44.727Z,15.10
2022-11-30T02:56:32.702Z,15.10
2022-11-30T02:59:12.735Z,15.20
2022-11-30T03:01:59.708Z,15.10
2022-11-30T03:04:39.805Z,15.10
2022-11-30T03:07:26.707Z,15.10
2022-11-30T03:10:07.792Z,15.10
2022-11-30T03:12:54.680Z,15.10
2022-11-30T03:15:41.746Z,15.20
2022-11-30T03:18:22.140Z,15.20
2022-11-30T03:21:08.707Z,15.10
2022-11-30T03:23:55.689Z,15.10
2022-11-30T03:26:35.766Z,15.10
2022-11-30T03:29:22.679Z,15.10
2022-11-30T03:32:09.666Z,15.10
2022-11-30T03:34:56.834Z,15.10
2022-11-30T03:37:36.669Z,15.00
2022-11-30T03:40:17.283Z,15.00
2022-11-30T03:43:03.667Z,15.00
2022-11-30T03:45:51.732Z,15.00
2022-11-30T03:48:32.677Z,15.00
2022-11-30T03:51:13.239Z,15.00
2022-11-30T03:53:59.665Z,15.00
2022-11-30T03:56:40.254Z,15.00
2022-11-30T03:59:26.667Z,15.00
2022-11-30T04:02:07.155Z,15.00
2022-11-30T04:04:53.720Z,14.90
2022-11-30T04:07:40.727Z,14.90
2022-11-30T04:10:20.712Z,14.90
2022-11-30T04:13:07.663Z,14.90
2022-11-30T04:15:47.749Z,14.90
2022-11-30T04:18:36.692Z,14.90
2022-11-30T04:21:18.966Z,14.90
2022-11-30T04:24:05.684Z,14.90
2022-11-30T04:26:46.142Z,14.90
2022-11-30T04:29:32.674Z,14.90
2022-11-30T04:32:19.700Z,14.90
2022-11-30T04:35:06.662Z,14.90
2022-11-30T04:37:53.683Z,14.90
2022-11-30T04:40:34.367Z,14.90
2022-11-30T04:43:20.689Z,14.90
2022-11-30T04:46:01.148Z,14.90
2022-11-30T04:48:48.669Z,14.90
2022-11-30T04:51:29.149Z,14.90
2022-11-30T04:54:15.693Z,14.90
2022-11-30T04:57:02.882Z,14.90
2022-11-30T04:59:42.680Z,14.90
2022-11-30T05:02:23.148Z,14.90
2022-11-30T05:05:09.706Z,14.90
2022-11-30T05:08:00.738Z,14.90
2022-11-30T05:10:52.735Z,14.90
2022-11-30T05:13:33.147Z,14.90
2022-11-30T05:16:19.740Z,14.90
2022-11-30T05:19:06.721Z,14.90
2022-11-30T05:21:47.698Z,14.90
2022-11-30T05:24:27.800Z,14.90
2022-11-30T05:27:20.910Z,14.90
2022-11-30T05:30:09.678Z,14.90
2022-11-30T05:32:49.802Z,14.90
2022-11-30T05:35:36.695Z,14.90
2022-11-30T05:38:16.805Z,14.90
2022-11-30T05:41:07.671Z,14.90
2022-11-30T05:43:47.764Z,14.90
2022-11-30T05:46:39.579Z,14.90
2022-11-30T05:49:20.812Z,14.90
2022-11-30T05:52:07.685Z,14.90
2022-11-30T05:54:48.021Z,14.80
2022-11-30T05:57:34.674Z,14.80
2022-11-30T06:00:22.706Z,14.80
2022-11-30T06:03:09.962Z,14.80
2022-11-30T06:05:49.663Z,14.90
2022-11-30T06:08:36.731Z,14.90
2022-11-30T06:11:17.685Z,14.90
2022-11-30T06:14:04.804Z,14.90
2022-11-30T06:16:45.746Z,15.00
2022-11-30T06:19:25.814Z,14.90
2022-11-30T06:22:12.726Z,14.90
2022-11-30T06:24:59.717Z,14.90
2022-11-30T06:27:39.700Z,14.90
2022-11-30T06:30:20.535Z,14.90
2022-11-30T06:33:06.696Z,14.90
2022-11-30T06:35:53.685Z,14.90
2022-11-30T06:38:34.725Z,14.80
2022-11-30T06:41:21.704Z,14.80
2022-11-30T06:44:01.718Z,14.70
2022-11-30T06:46:48.668Z,14.70
2022-11-30T06:49:28.755Z,14.70
2022-11-30T06:52:15.679Z,14.70
2022-11-30T06:54:55.753Z,14.70
2022-11-30T06:57:42.681Z,14.70
2022-11-30T07:00:23.770Z,14.70
2022-11-30T07:03:12.692Z,14.70
2022-11-30T07:05:54.112Z,14.80
2022-11-30T07:08:40.691Z,14.80
2022-11-30T07:11:27.688Z,14.90
2022-11-30T07:14:14.693Z,15.00
2022-11-30T07:17:01.693Z,15.10
2022-11-30T07:19:42.189Z,15.20
2022-11-30T07:22:28.707Z,15.40
2022-11-30T07:25:28.438Z,15.50
2022-11-30T07:28:15.688Z,15.60
2022-11-30T07:31:02.684Z,15.80
2022-11-30T07:33:56.731Z,15.90
2022-11-30T07:36:43.691Z,16.00
2022-11-30T07:39:24.694Z,16.00
2022-11-30T07:42:11.688Z,16.10
2022-11-30T07:44:59.428Z,16.20
2022-11-30T07:47:46.684Z,16.30
2022-11-30T07:50:26.866Z,16.30
2022-11-30T07:53:13.688Z,16.40
2022-11-30T07:55:56.943Z,16.40
2022-11-30T07:58:44.726Z,16.40
2022-11-30T08:01:27.931Z,16.40
2022-11-30T08:04:14.715Z,16.50
2022-11-30T08:06:55.291Z,16.50
2022-11-30T08:09:41.695Z,16.50
2022-11-30T08:12:21.746Z,16.60
2022-11-30T08:15:19.722Z,16.60
2022-11-30T08:18:00.198Z,16.60
2022-11-30T08:20:50.034Z,16.70
2022-11-30T08:23:36.748Z,16.70
2022-11-30T08:26:34.685Z,16.70
2022-11-30T08:29:23.681Z,16.80
2022-11-30T08:32:04.589Z,16.80
2022-11-30T08:34:51.733Z,16.70
2022-11-30T08:37:31.796Z,16.80
2022-11-30T08:40:19.691Z,16.90
2022-11-30T08:43:00.173Z,16.80
2022-11-30T08:45:46.740Z,16.90
2022-11-30T08:48:33.822Z,16.90
2022-11-30T08:51:17.707Z,16.90
2022-11-30T08:53:58.216Z,16.90
2022-11-30T08:56:44.688Z,16.90
2022-11-30T08:59:24.814Z,16.90
2022-11-30T09:02:11.798Z,16.90
2022-11-30T09:04:53.482Z,16.90
2022-11-30T09:07:39.826Z,17.00
2022-11-30T09:10:26.707Z,17.00
2022-11-30T09:13:06.800Z,17.00
2022-11-30T09:16:01.866Z,17.00
2022-11-30T09:18:42.054Z,17.00
2022-11-30T09:21:30.698Z,17.00
2022-11-30T09:24:17.729Z,17.10
2022-11-30T09:27:04.703Z,17.10
2022-11-30T09:29:44.812Z,17.10
2022-11-30T09:32:31.691Z,17.10
2022-11-30T09:35:18.720Z,17.10
2022-11-30T09:37:59.700Z,17.20
2022-11-30T09:40:47.797Z,17.20
2022-11-30T09:43:39.697Z,17.20
2022-11-30T09:46:34.745Z,17.20
2022-11-30T09:49:40.729Z,17.30
2022-11-30T09:53:04.858Z,17.30
2022-11-30T09:55:48.723Z,17.30
2022-11-30T09:59:02.691Z,17.40
2022-11-30T10:01:56.397Z,17.40
2022-11-30T10:04:37.184Z,17.40
2022-11-30T10:07:49.760Z,17.40
2022-11-30T10:10:56.717Z,17.50
2022-11-30T10:13:55.702Z,17.50
2022-11-30T10:16:51.290Z,17.60
2022-11-30T10:20:04.696Z,17.70
2022-11-30T10:23:03.304Z,17.70
2022-11-30T10:26:06.703Z,17.80
2022-11-30T10:28:53.989Z,17.90
2022-11-30T10:31:47.712Z,17.90
2022-11-30T10:34:40.747Z,18.00
2022-11-30T10:37:36.737Z,18.00
2022-11-30T10:40:36.740Z,18.00
2022-11-30T10:43:46.705Z,18.00
2022-11-30T10:46:43.742Z,18.10
2022-11-30T10:49:26.824Z,18.10
2022-11-30T10:52:15.695Z,18.20
2022-11-30T10:55:06.747Z,18.20
2022-11-30T10:57:55.700Z,18.20
2022-11-30T11:00:35.811Z,18.20
2022-11-30T11:03:31.697Z,18.20
2022-11-30T11:06:17.792Z,18.20
2022-11-30T11:09:04.707Z,18.30
2022-11-30T11:11:45.851Z,18.20
2022-11-30T11:14:37.898Z,18.30
2022-11-30T11:17:39.689Z,18.30
2022-11-30T11:20:31.273Z,18.30
2022-11-30T11:23:18.696Z,18.30
2022-11-30T11:26:05.678Z,18.30
2022-11-30T11:28:51.884Z,18.30
2022-11-30T11:31:45.700Z,18.30
2022-11-30T11:34:51.079Z,18.30
2022-11-30T11:37:40.723Z,18.30
2022-11-30T11:40:31.748Z,18.30
2022-11-30T11:43:16.884Z,18.40
2022-11-30T11:46:09.743Z,18.40
2022-11-30T11:49:00.475Z,18.40
2022-11-30T11:51:53.678Z,18.40
2022-11-30T11:54:47.066Z,18.40
2022-11-30T11:57:45.720Z,18.50
2022-11-30T12:00:26.602Z,18.40
2022-11-30T12:03:18.710Z,18.40
2022-11-30T12:06:04.212Z,18.40
2022-11-30T12:09:10.725Z,18.50
2022-11-30T12:11:57.845Z,18.50
2022-11-30T12:14:38.791Z,18.50
2022-11-30T12:17:19.158Z,18.50
2022-11-30T12:20:37.741Z,18.50
2022-11-30T12:23:42.828Z,18.50
2022-11-30T12:26:28.716Z,18.50
2022-11-30T12:29:28.719Z,18.50
2022-11-30T12:32:19.813Z,18.50
2022-11-30T12:35:20.707Z,18.50
2022-11-30T12:38:23.512Z,18.50
2022-11-30T12:41:36.740Z,18.50
2022-11-30T12:44:44.751Z,18.50
2022-11-30T12:47:50.738Z,18.40
2022-11-30T12:51:14.879Z,18.40
2022-11-30T12:54:15.752Z,18.40
2022-11-30T12:57:31.943Z,18.40
2022-11-30T13:00:34.757Z,18.40
2022-11-30T13:03:24.796Z,18.40
2022-11-30T13:06:07.713Z,18.40
2022-11-30T13:09:10.726Z,18.40
2022-11-30T13:12:16.588Z,18.40
2022-11-30T13:15:14.076Z,18.40
2022-11-30T13:17:55.854Z,18.40
2022-11-30T13:21:07.764Z,18.40
2022-11-30T13:24:19.774Z,18.40
2022-11-30T13:27:08.786Z,18.40
2022-11-30T13:30:00.752Z,18.40
2022-11-30T13:32:57.919Z,18.40
2022-11-30T13:35:52.703Z,18.50
2022-11-30T13:38:39.771Z,18.40
2022-11-30T13:41:27.711Z,18.50
2022-11-30T13:44:31.644Z,18.50
2022-11-30T13:47:42.801Z,18.50
2022-11-30T13:50:37.716Z,18.40
2022-11-30T13:53:40.734Z,18.40
2022-11-30T13:56:27.760Z,18.40
2022-11-30T13:59:41.278Z,18.40
2022-11-30T14:02:40.698Z,18.40
2022-11-30T14:05:30.742Z,18.40
2022-11-30T14:08:17.958Z,18.40
2022-11-30T14:11:06.736Z,18.30
2022-11-30T14:13:47.319Z,18.40
2022-11-30T14:16:37.744Z,18.30
2022-11-30T14:19:19.084Z,18.30
2022-11-30T14:22:05.739Z,18.30
2022-11-30T14:24:53.762Z,18.30
2022-11-30T14:27:42.720Z,18.40
2022-11-30T14:30:30.852Z,18.30
2022-11-30T14:33:26.990Z,18.30
2022-11-30T14:36:29.757Z,18.30
2022-11-30T14:39:43.715Z,18.30
2022-11-30T14:42:37.906Z,18.30
2022-11-30T14:45:30.894Z,18.30
2022-11-30T14:48:26.711Z,18.20
2022-11-30T14:51:10.743Z,18.20
2022-11-30T14:54:07.755Z,18.20
2022-11-30T14:56:56.770Z,18.20
2022-11-30T15:00:03.714Z,18.20
2022-11-30T15:02:51.730Z,18.20
2022-11-30T15:05:32.780Z,18.20
2022-11-30T15:08:23.736Z,18.20
2022-11-30T15:11:09.920Z,18.10
2022-11-30T15:14:13.711Z,18.10
2022-11-30T15:17:01.827Z,18.10
2022-11-30T15:19:53.712Z,18.10
2022-11-30T15:22:47.731Z,18.10
2022-11-30T15:25:37.954Z,18.10
2022-11-30T15:28:30.709Z,18.10
2022-11-30T15:31:21.759Z,18.10
2022-11-30T15:34:08.702Z,18.00
2022-11-30T15:37:02.751Z,18.00
2022-11-30T15:39:55.543Z,18.00
2022-11-30T15:42:49.742Z,18.00
2022-11-30T15:45:41.199Z,18.00
2022-11-30T15:48:39.735Z,17.90
2022-11-30T15:51:30.710Z,17.90
2022-11-30T15:54:10.823Z,17.90
2022-11-30T15:57:08.864Z,17.90
2022-11-30T15:59:56.727Z,17.90
2022-11-30T16:02:38.413Z,17.90
2022-11-30T16:05:27.819Z,17.90
2022-11-30T16:08:16.635Z,17.90
2022-11-30T16:11:07.828Z,17.80
2022-11-30T16:13:54.729Z,17.80
2022-11-30T16:16:37.818Z,17.80
2022-11-30T16:19:24.711Z,17.80
2022-11-30T16:22:11.734Z,17.80
2022-11-30T16:24:58.806Z,17.80
2022-11-30T16:27:38.734Z,17.80
2022-11-30T16:30:29.781Z,17.80
2022-11-30T16:33:09.739Z,17.70
2022-11-30T16:36:14.726Z,17.70
2022-11-30T16:38:57.723Z,17.70
2022-11-30T16:41:44.733Z,17.70
2022-11-30T16:44:24.831Z,17.70
2022-11-30T16:47:11.784Z,17.70
2022-11-30T16:49:51.762Z,17.70
2022-11-30T16:52:38.736Z,17.70
2022-11-30T16:55:26.818Z,17.60
2022-11-30T16:58:13.719Z,17.60
2022-11-30T17:00:54.930Z,17.70
2022-11-30T17:03:42.740Z,17.60
2022-11-30T17:06:28.894Z,17.70
2022-11-30T17:09:19.763Z,17.60
2022-11-30T17:12:06.734Z,17.60
2022-11-30T17:14:53.727Z,17.60
2022-11-30T17:17:40.755Z,17.60
2022-11-30T17:20:27.806Z,17.60
2022-11-30T17:23:07.759Z,17.60
2022-11-30T17:25:49.279Z,17.60
2022-11-30T17:28:35.730Z,17.50
2022-11-30T17:31:15.932Z,17.60
2022-11-30T17:34:02.751Z,17.60
2022-11-30T17:36:49.731Z,17.60
2022-11-30T17:39:37.771Z,17.60
2022-11-30T17:42:24.726Z,17.60
2022-11-30T17:45:11.782Z,17.50
2022-11-30T17:47:58.723Z,17.60
2022-11-30T17:50:39.011Z,17.50
2022-11-30T17:53:25.774Z,17.60
2022-11-30T17:56:20.722Z,17.50
2022-11-30T17:59:07.831Z,17.50
2022-11-30T18:01:47.781Z,17.40
2022-11-30T18:04:28.230Z,17.50
2022-11-30T18:07:14.764Z,17.50
2022-11-30T18:09:54.908Z,17.50
2022-11-30T18:12:41.731Z,17.50
2022-11-30T18:15:21.878Z,17.50
2022-11-30T18:18:08.748Z,17.50
2022-11-30T18:20:55.732Z,17.40
2022-11-30T18:23:42.753Z,17.50
2022-11-30T18:26:30.734Z,17.40
2022-11-30T18:29:10.863Z,17.50
2022-11-30T18:31:57.734Z,17.40
2022-11-30T18:34:55.719Z,17.40
2022-11-30T18:37:42.772Z,17.40
2022-11-30T18:40:29.764Z,17.40
2022-11-30T18:43:16.742Z,17.40
2022-11-30T18:46:20.822Z,17.30
2022-11-30T18:49:08.715Z,17.30
2022-11-30T18:51:48.894Z,17.30
2022-11-30T18:54:37.732Z,17.30
2022-11-30T18:57:17.812Z,17.30
2022-11-30T19:00:04.731Z,17.30
2022-11-30T19:02:44.860Z,17.30
2022-11-30T19:05:44.749Z,17.30
2022-11-30T19:08:24.787Z,17.30
2022-11-30T19:11:14.780Z,17.30
2022-11-30T19:13:54.861Z,17.20
2022-11-30T19:16:41.800Z,17.30
2022-11-30T19:19:28.730Z,17.30
2022-11-30T19:22:15.752Z,17.30
2022-11-30T19:24:55.864Z,17.30
2022-11-30T19:27:42.719Z,17.30
2022-11-30T19:30:22.800Z,17.20
2022-11-30T19:33:09.723Z,17.30
2022-11-30T19:36:03.761Z,17.20
2022-11-30T19:38:44.469Z,17.20
2022-11-30T19:41:31.734Z,17.20
2022-11-30T19:44:21.753Z,17.20
2022-11-30T19:47:01.820Z,17.20
2022-11-30T19:49:48.723Z,17.20
2022-11-30T19:52:28.798Z,17.20
2022-11-30T19:55:15.791Z,17.20
2022-11-30T19:57:55.783Z,17.20
2022-11-30T20:00:42.737Z,17.20
2022-11-30T20:03:29.773Z,17.20
2022-11-30T20:06:10.231Z,17.20
2022-11-30T20:08:56.756Z,17.20
2022-11-30T20:11:43.765Z,17.20
2022-11-30T20:14:23.864Z,17.20
2022-11-30T20:17:10.828Z,17.10
2022-11-30T20:19:50.866Z,17.20
2022-11-30T20:22:39.785Z,17.20
2022-11-30T20:25:21.132Z,17.10
2022-11-30T20:28:12.428Z,17.10
2022-11-30T20:30:52.837Z,17.10
2022-11-30T20:33:39.759Z,17.10
2022-11-30T20:36:27.750Z,17.10
2022-11-30T20:39:16.726Z,17.10
2022-11-30T20:41:56.871Z,17.10
2022-11-30T20:44:43.747Z,17.10
2022-11-30T20:47:23.831Z,17.10
2022-11-30T20:50:12.741Z,17.10
2022-11-30T20:52:52.770Z,17.10
2022-11-30T20:55:39.740Z,17.10
2022-11-30T20:58:26.912Z,17.10
2022-11-30T21:01:23.031Z,17.10
2022-11-30T21:04:02.824Z,17.20
2022-11-30T21:06:45.446Z,17.10
2022-11-30T21:09:32.742Z,17.20
2022-11-30T21:12:19.817Z,17.10
2022-11-30T21:14:59.742Z,17.10
2022-11-30T21:17:40.405Z,17.10
2022-11-30T21:20:26.983Z,17.10
2022-11-30T21:23:07.218Z,17.00
2022-11-30T21:25:54.111Z,16.80
2022-11-30T21:28:42.071Z,16.70
2022-11-30T21:31:22.933Z,16.50
2022-11-30T21:34:09.751Z,16.40
2022-11-30T21:36:58.742Z,16.40
2022-11-30T21:39:45.764Z,16.30
2022-11-30T21:42:25.958Z,16.20
2022-11-30T21:45:12.766Z,16.20
2022-11-30T21:47:59.747Z,16.10
2022-11-30T21:50:46.744Z,16.00
2022-11-30T21:53:26.886Z,16.00
2022-11-30T21:56:18.748Z,15.90
2022-11-30T21:58:59.904Z,15.80
2022-11-30T22:01:48.744Z,15.80
2022-11-30T22:04:28.936Z,15.70
2022-11-30T22:07:18.866Z,15.70
2022-11-30T22:09:58.869Z,15.60
2022-11-30T22:12:45.768Z,15.60
2022-11-30T22:15:25.971Z,15.50
2022-11-30T22:18:12.831Z,15.50
2022-11-30T22:20:52.819Z,15.40
2022-11-30T22:23:42.755Z,15.40
2022-11-30T22:26:29.894Z,15.40
2022-11-30T22:29:23.743Z,15.30
2022-11-30T22:32:10.744Z,15.30
2022-11-30T22:34:57.764Z,15.30
2022-11-30T22:37:37.986Z,15.20
2022-11-30T22:40:24.751Z,15.20
2022-11-30T22:43:12.746Z,15.20
2022-11-30T22:45:59.848Z,15.20
2022-11-30T22:48:39.792Z,15.10
2022-11-30T22:51:28.880Z,15.20
2022-11-30T22:54:09.777Z,15.10
2022-11-30T22:56:50.291Z,15.10
2022-11-30T22:59:36.762Z,15.10
2022-11-30T23:02:23.771Z,15.00
2022-11-30T23:05:03.820Z,15.10
2022-11-30T23:07:50.796Z,15.10
2022-11-30T23:10:30.892Z,15.00
2022-11-30T23:13:17.752Z,15.00
2022-11-30T23:16:05.738Z,14.90
2022-11-30T23:18:55.360Z,15.00
2022-11-30T23:21:43.784Z,14.90
2022-11-30T23:24:24.267Z,14.90
2022-11-30T23:27:10.748Z,14.90
2022-11-30T23:29:57.803Z,14.90
2022-11-30T23:32:44.773Z,14.90
2022-11-30T23:35:38.828Z,14.90
2022-11-30T23:38:25.755Z,14.90
2022-11-30T23:41:23.855Z,14.90
2022-11-30T23:44:11.843Z,14.80
2022-11-30T23:46:58.797Z,14.80
2022-11-30T23:49:45.890Z,14.80
2022-11-30T23:52:25.876Z,14.80
2022-11-30T23:55:13.747Z,14.70
2022-11-30T23:57:53.809Z,14.70
